sensor_id;sensor_type;location;lat;lon;timestamp;pressure;altitude;pressure_sealevel;temperature;humidity
35888;BME280;21990;42.540;23.496;2022-12-16T00:01:19;93375.66;;;4.25;100.00
35888;BME280;21990;42.540;23.496;2022-12-16T00:03:49;93376.47;;;4.37;100.00
35888;BME280;21990;42.540;23.496;2022-12-16T00:06:15;93381.34;;;4.42;100.00
35888;BME280;21990;42.540;23.496;2022-12-16T00:08:41;93376.72;;;4.34;100.00
35888;BME280;21990;42.540;23.496;2022-12-16T00:11:07;93381.09;;;4.46;100.00
35888;BME280;21990;42.540;23.496;2022-12-16T00:13:34;93377.31;;;4.49;100.00
35888;BME280;21990;42.540;23.496;2022-12-16T00:16:05;93379.16;;;4.57;100.00
35888;BME280;21990;42.540;23.496;2022-12-16T00:18:31;93373.81;;;4.54;100.00
35888;BME280;21990;42.540;23.496;2022-12-16T00:20:56;93385.44;;;4.47;100.00
35888;BME280;21990;42.540;23.496;2022-12-16T00:23:23;93389.00;;;4.47;100.00
35888;BME280;21990;42.540;23.496;2022-12-16T00:25:49;93374.00;;;4.45;100.00
35888;BME280;21990;42.540;23.496;2022-12-16T00:28:16;93374.53;;;4.49;100.00
35888;BME280;21990;42.540;23.496;2022-12-16T00:30:43;93377.06;;;4.52;100.00
35888;BME280;21990;42.540;23.496;2022-12-16T00:33:09;93375.25;;;4.44;100.00
35888;BME280;21990;42.540;23.496;2022-12-16T00:35:34;93377.28;;;4.43;100.00
35888;BME280;21990;42.540;23.496;2022-12-16T00:38:00;93381.53;;;4.33;100.00
35888;BME280;21990;42.540;23.496;2022-12-16T00:40:26;93387.34;;;4.29;100.00
35888;BME280;21990;42.540;23.496;2022-12-16T00:42:51;93392.16;;;4.29;100.00
35888;BME280;21990;42.540;23.496;2022-12-16T00:45:17;93402.75;;;4.25;100.00
35888;BME280;21990;42.540;23.496;2022-12-16T00:47:43;93392.69;;;4.33;100.00
35888;BME280;21990;42.540;23.496;2022-12-16T00:50:08;93390.94;;;4.36;100.00
35888;BME280;21990;42.540;23.496;2022-12-16T00:52:35;93382.03;;;4.32;100.00
35888;BME280;21990;42.540;23.496;2022-12-16T00:55:01;93386.84;;;4.31;100.00
35888;BME280;21990;42.540;23.496;2022-12-16T00:57:26;93379.03;;;4.35;100.00
35888;BME280;21990;42.540;23.496;2022-12-16T00:59:55;93375.94;;;4.27;100.00
35888;BME280;21990;42.540;23.496;2022-12-16T01:02:20;93377.53;;;4.40;100.00
35888;BME280;21990;42.540;23.496;2022-12-16T01:04:46;93376.47;;;4.37;100.00
35888;BME280;21990;42.540;23.496;2022-12-16T01:07:11;93369.16;;;4.40;100.00
35888;BME280;21990;42.540;23.496;2022-12-16T01:09:37;93367.63;;;4.39;100.00
35888;BME280;21990;42.540;23.496;2022-12-16T01:12:02;93371.19;;;4.45;100.00
35888;BME280;21990;42.540;23.496;2022-12-16T01:14:28;93370.19;;;4.42;100.00
35888;BME280;21990;42.540;23.496;2022-12-16T01:16:53;93373.47;;;4.41;100.00
35888;BME280;21990;42.540;23.496;2022-12-16T01:19:19;93388.47;;;4.49;100.00
35888;BME280;21990;42.540;23.496;2022-12-16T01:21:44;93378.13;;;4.60;100.00
35888;BME280;21990;42.540;23.496;2022-12-16T01:24:10;93376.13;;;4.61;100.00
35888;BME280;21990;42.540;23.496;2022-12-16T01:26:36;93378.13;;;4.60;100.00
35888;BME280;21990;42.540;23.496;2022-12-16T01:29:03;93357.34;;;4.61;100.00
35888;BME280;21990;42.540;23.496;2022-12-16T01:31:29;93372.56;;;4.60;100.00
35888;BME280;21990;42.540;23.496;2022-12-16T01:33:54;93363.38;;;4.49;100.00
35888;BME280;21990;42.540;23.496;2022-12-16T01:36:20;93348.16;;;4.50;100.00
35888;BME280;21990;42.540;23.496;2022-12-16T01:38:46;93355.72;;;4.44;100.00
35888;BME280;21990;42.540;23.496;2022-12-16T01:41:12;93351.66;;;4.39;100.00
35888;BME280;21990;42.540;23.496;2022-12-16T01:43:42;93361.34;;;4.49;100.00
35888;BME280;21990;42.540;23.496;2022-12-16T01:46:09;93349.94;;;4.47;100.00
35888;BME280;21990;42.540;23.496;2022-12-16T01:49:07;93363.84;;;4.42;100.00
35888;BME280;21990;42.540;23.496;2022-12-16T01:51:41;93355.28;;;4.56;100.00
35888;BME280;21990;42.540;23.496;2022-12-16T01:54:14;93345.41;;;4.61;100.00
35888;BME280;21990;42.540;23.496;2022-12-16T01:56:52;93347.47;;;4.66;100.00
35888;BME280;21990;42.540;23.496;2022-12-16T01:59:19;93344.19;;;4.67;100.00
35888;BME280;21990;42.540;23.496;2022-12-16T02:01:47;93359.44;;;4.72;100.00
35888;BME280;21990;42.540;23.496;2022-12-16T02:04:12;93351.56;;;4.70;100.00
35888;BME280;21990;42.540;23.496;2022-12-16T02:06:38;93351.81;;;4.72;100.00
35888;BME280;21990;42.540;23.496;2022-12-16T02:09:08;93355.28;;;4.56;100.00
35888;BME280;21990;42.540;23.496;2022-12-16T02:28:25;93328.59;;;4.44;100.00
35888;BME280;21990;42.540;23.496;2022-12-16T02:31:17;93328.56;;;4.39;100.00
35888;BME280;21990;42.540;23.496;2022-12-16T02:34:07;93330.59;;;4.38;100.00
35888;BME280;21990;42.540;23.496;2022-12-16T02:36:44;93329.09;;;4.43;100.00
35888;BME280;21990;42.540;23.496;2022-12-16T02:39:24;93321.69;;;4.34;100.00
35888;BME280;21990;42.540;23.496;2022-12-16T02:44:33;93326.31;;;4.48;100.00
35888;BME280;21990;42.540;23.496;2022-12-16T02:46:59;93335.75;;;4.51;100.00
35888;BME280;21990;42.540;23.496;2022-12-16T02:51:51;93329.16;;;4.59;100.00
35888;BME280;21990;42.540;23.496;2022-12-16T02:54:18;93330.88;;;4.46;100.00
35888;BME280;21990;42.540;23.496;2022-12-16T03:07:06;93367.50;;;4.59;100.00
35888;BME280;21990;42.540;23.496;2022-12-16T03:09:35;93358.59;;;4.55;100.00
35888;BME280;21990;42.540;23.496;2022-12-16T03:12:05;93369.25;;;4.56;100.00
35888;BME280;21990;42.540;23.496;2022-12-16T03:14:34;93357.34;;;4.61;100.00
35888;BME280;21990;42.540;23.496;2022-12-16T03:17:03;93357.88;;;4.65;100.00
35888;BME280;21990;42.540;23.496;2022-12-16T03:19:30;93358.66;;;4.66;100.00
35888;BME280;21990;42.540;23.496;2022-12-16T03:22:02;93354.63;;;4.72;100.00
35888;BME280;21990;42.540;23.496;2022-12-16T03:24:30;93348.03;;;4.75;100.00
35888;BME280;21990;42.540;23.496;2022-12-16T03:27:04;93340.69;;;4.78;100.00
35888;BME280;21990;42.540;23.496;2022-12-16T03:29:52;93326.22;;;4.79;100.00
35888;BME280;21990;42.540;23.496;2022-12-16T03:32:31;93336.38;;;4.77;100.00
35888;BME280;21990;42.540;23.496;2022-12-16T03:35:16;93343.50;;;4.78;100.00
35888;BME280;21990;42.540;23.496;2022-12-16T03:37:43;93340.19;;;4.79;100.00
35888;BME280;21990;42.540;23.496;2022-12-16T03:40:11;93338.16;;;4.74;100.00
35888;BME280;21990;42.540;23.496;2022-12-16T03:42:38;93334.78;;;4.65;100.00
35888;BME280;21990;42.540;23.496;2022-12-16T03:45:06;93328.75;;;4.77;100.00
35888;BME280;21990;42.540;23.496;2022-12-16T03:47:32;93338.94;;;4.86;100.00
35888;BME280;21990;42.540;23.496;2022-12-16T03:49:58;93334.91;;;4.98;100.00
35888;BME280;21990;42.540;23.496;2022-12-16T03:52:23;93341.06;;;5.08;100.00
35888;BME280;21990;42.540;23.496;2022-12-16T03:54:49;93342.31;;;5.01;100.00
35888;BME280;21990;42.540;23.496;2022-12-16T03:57:14;93342.06;;;5.10;100.00
35888;BME280;21990;42.540;23.496;2022-12-16T03:59:40;93343.59;;;5.11;100.00
35888;BME280;21990;42.540;23.496;2022-12-16T04:02:08;93349.22;;;5.17;100.00
35888;BME280;21990;42.540;23.496;2022-12-16T04:04:34;93351.47;;;5.18;100.00
35888;BME280;21990;42.540;23.496;2022-12-16T04:06:59;93355.31;;;5.21;100.00
35888;BME280;21990;42.540;23.496;2022-12-16T04:09:43;93361.66;;;5.21;100.00
35888;BME280;21990;42.540;23.496;2022-12-16T04:12:09;93359.88;;;5.24;100.00
35888;BME280;21990;42.540;23.496;2022-12-16T04:14:53;93350.22;;;5.19;100.00
35888;BME280;21990;42.540;23.496;2022-12-16T04:17:37;93350.75;;;5.23;100.00
35888;BME280;21990;42.540;23.496;2022-12-16T04:20:33;93353.50;;;5.12;100.00
35888;BME280;21990;42.540;23.496;2022-12-16T04:23:19;93356.78;;;5.11;100.00
35888;BME280;21990;42.540;23.496;2022-12-16T04:26:03;93365.94;;;5.11;100.00
35888;BME280;21990;42.540;23.496;2022-12-16T04:28:29;93354.28;;;5.18;100.00
35888;BME280;21990;42.540;23.496;2022-12-16T04:30:55;93362.91;;;5.15;100.00
35888;BME280;21990;42.540;23.496;2022-12-16T04:33:22;93359.59;;;5.05;100.00
35888;BME280;21990;42.540;23.496;2022-12-16T04:36:06;93348.41;;;5.05;100.00
35888;BME280;21990;42.540;23.496;2022-12-16T04:38:50;93345.34;;;5.03;100.00
35888;BME280;21990;42.540;23.496;2022-12-16T04:41:34;93336.19;;;5.03;100.00
35888;BME280;21990;42.540;23.496;2022-12-16T04:44:18;93330.63;;;5.03;100.00
35888;BME280;21990;42.540;23.496;2022-12-16T04:47:02;93337.50;;;5.07;100.00
35888;BME280;21990;42.540;23.496;2022-12-16T04:49:46;93348.44;;;5.16;100.00
35888;BME280;21990;42.540;23.496;2022-12-16T04:52:30;93354.03;;;5.22;100.00
35888;BME280;21990;42.540;23.496;2022-12-16T04:55:13;93353.53;;;5.23;100.00
35888;BME280;21990;42.540;23.496;2022-12-16T04:57:59;93348.69;;;5.13;100.00
35888;BME280;21990;42.540;23.496;2022-12-16T05:00:44;93354.56;;;5.20;100.00
35888;BME280;21990;42.540;23.496;2022-12-16T05:03:29;93359.38;;;5.25;100.00
35888;BME280;21990;42.540;23.496;2022-12-16T05:06:13;93347.19;;;5.17;100.00
35888;BME280;21990;42.540;23.496;2022-12-16T05:08:57;93353.00;;;5.14;100.00
35888;BME280;21990;42.540;23.496;2022-12-16T05:11:41;93347.94;;;5.18;100.00
35888;BME280;21990;42.540;23.496;2022-12-16T05:14:25;93354.31;;;5.24;100.00
35888;BME280;21990;42.540;23.496;2022-12-16T05:17:09;93359.16;;;5.35;100.00
35888;BME280;21990;42.540;23.496;2022-12-16T05:19:53;93374.16;;;5.43;100.00
35888;BME280;21990;42.540;23.496;2022-12-16T05:22:37;93362.22;;;5.53;100.00
35888;BME280;21990;42.540;23.496;2022-12-16T05:25:21;93371.66;;;5.61;100.00
35888;BME280;21990;42.540;23.496;2022-12-16T05:28:05;93379.56;;;5.74;100.00
35888;BME280;21990;42.540;23.496;2022-12-16T05:30:49;93374.47;;;5.84;100.00
35888;BME280;21990;42.540;23.496;2022-12-16T05:33:33;93369.41;;;5.88;100.00
35888;BME280;21990;42.540;23.496;2022-12-16T05:36:17;93391.56;;;5.91;100.00
35888;BME280;21990;42.540;23.496;2022-12-16T05:39:01;93394.34;;;5.97;100.00
35888;BME280;21990;42.540;23.496;2022-12-16T05:41:45;93395.59;;;5.96;100.00
35888;BME280;21990;42.540;23.496;2022-12-16T05:44:29;93403.75;;;5.99;100.00
35888;BME280;21990;42.540;23.496;2022-12-16T05:47:13;93419.03;;;6.09;100.00
35888;BME280;21990;42.540;23.496;2022-12-16T05:49:57;93420.03;;;6.12;100.00
35888;BME280;21990;42.540;23.496;2022-12-16T05:52:50;93409.13;;;6.14;100.00
35888;BME280;21990;42.540;23.496;2022-12-16T05:55:34;93405.56;;;6.13;100.00
35888;BME280;21990;42.540;23.496;2022-12-16T05:58:19;93426.66;;;6.20;100.00
35888;BME280;21990;42.540;23.496;2022-12-16T06:01:03;93432.00;;;6.24;100.00
35888;BME280;21990;42.540;23.496;2022-12-16T06:03:47;93434.03;;;6.23;100.00
35888;BME280;21990;42.540;23.496;2022-12-16T06:06:31;93442.44;;;6.29;100.00
35888;BME280;21990;42.540;23.496;2022-12-16T06:09:15;93439.38;;;6.27;100.00
35888;BME280;21990;42.540;23.496;2022-12-16T06:11:59;93443.97;;;6.30;100.00
35888;BME280;21990;42.540;23.496;2022-12-16T06:14:43;93445.47;;;6.19;100.00
35888;BME280;21990;42.540;23.496;2022-12-16T06:17:26;93460.25;;;6.14;100.00
35888;BME280;21990;42.540;23.496;2022-12-16T06:20:10;93452.31;;;6.07;100.00
35888;BME280;21990;42.540;23.496;2022-12-16T06:23:02;93448.03;;;6.06;100.00
35888;BME280;21990;42.540;23.496;2022-12-16T06:25:47;93453.59;;;6.12;100.00
35888;BME280;21990;42.540;23.496;2022-12-16T06:28:30;93453.84;;;6.08;100.00
35888;BME280;21990;42.540;23.496;2022-12-16T06:31:31;93470.41;;;6.06;100.00
35888;BME280;21990;42.540;23.496;2022-12-16T06:34:15;93479.28;;;6.05;100.00
35888;BME280;21990;42.540;23.496;2022-12-16T06:36:59;93471.16;;;6.07;100.00
35888;BME280;21990;42.540;23.496;2022-12-16T06:39:43;93471.44;;;6.14;100.00
35888;BME280;21990;42.540;23.496;2022-12-16T06:42:27;93481.09;;;6.13;100.00
35888;BME280;21990;42.540;23.496;2022-12-16T06:45:11;93459.97;;;6.18;100.00
35888;BME280;21990;42.540;23.496;2022-12-16T06:47:55;93475.22;;;6.22;100.00
35888;BME280;21990;42.540;23.496;2022-12-16T06:50:39;93478.81;;;6.29;100.00
35888;BME280;21990;42.540;23.496;2022-12-16T06:53:23;93475.75;;;6.27;100.00
35888;BME280;21990;42.540;23.496;2022-12-16T06:56:07;93471.69;;;6.33;100.00
35888;BME280;21990;42.540;23.496;2022-12-16T06:58:51;93480.34;;;6.30;100.00
35888;BME280;21990;42.540;23.496;2022-12-16T07:01:35;93482.38;;;6.29;100.00
35888;BME280;21990;42.540;23.496;2022-12-16T07:04:19;93481.13;;;6.41;100.00
35888;BME280;21990;42.540;23.496;2022-12-16T07:07:03;93485.19;;;6.40;100.00
35888;BME280;21990;42.540;23.496;2022-12-16T07:09:47;93468.38;;;6.35;100.00
35888;BME280;21990;42.540;23.496;2022-12-16T07:12:31;93453.63;;;6.29;100.00
35888;BME280;21990;42.540;23.496;2022-12-16T07:15:15;93463.03;;;6.31;100.00
35888;BME280;21990;42.540;23.496;2022-12-16T07:17:58;93481.38;;;6.38;100.00
35888;BME280;21990;42.540;23.496;2022-12-16T07:20:42;93485.41;;;6.42;100.00
35888;BME280;21990;42.540;23.496;2022-12-16T07:23:26;93478.06;;;6.45;100.00
35888;BME280;21990;42.540;23.496;2022-12-16T07:26:10;93481.38;;;6.49;100.00
35888;BME280;21990;42.540;23.496;2022-12-16T07:28:54;93479.31;;;6.44;100.00
35888;BME280;21990;42.540;23.496;2022-12-16T07:31:38;93487.47;;;6.47;100.00
35888;BME280;21990;42.540;23.496;2022-12-16T07:34:22;93482.88;;;6.44;100.00
35888;BME280;21990;42.540;23.496;2022-12-16T07:37:06;93489.25;;;6.50;100.00
35888;BME280;21990;42.540;23.496;2022-12-16T07:39:50;93484.16;;;6.49;100.00
35888;BME280;21990;42.540;23.496;2022-12-16T07:42:34;93483.13;;;6.46;100.00
35888;BME280;21990;42.540;23.496;2022-12-16T07:45:18;93496.13;;;6.44;100.00
35888;BME280;21990;42.540;23.496;2022-12-16T07:48:02;93487.72;;;6.55;100.00
35888;BME280;21990;42.540;23.496;2022-12-16T07:50:46;93488.50;;;6.55;100.00
35888;BME280;21990;42.540;23.496;2022-12-16T07:53:29;93494.09;;;6.55;100.00
35888;BME280;21990;42.540;23.496;2022-12-16T07:56:13;93492.53;;;6.65;100.00
35888;BME280;21990;42.540;23.496;2022-12-16T07:58:58;93481.63;;;6.56;100.00
35888;BME280;21990;42.540;23.496;2022-12-16T08:01:42;93487.47;;;6.58;100.00
35888;BME280;21990;42.540;23.496;2022-12-16T08:04:26;93485.44;;;6.64;100.00
35888;BME280;21990;42.540;23.496;2022-12-16T08:07:09;93473.47;;;6.75;100.00
35888;BME280;21990;42.540;23.496;2022-12-16T08:09:54;93478.28;;;6.86;100.00
35888;BME280;21990;42.540;23.496;2022-12-16T08:12:38;93485.69;;;6.83;100.00
35888;BME280;21990;42.540;23.496;2022-12-16T08:15:21;93478.03;;;6.95;100.00
35888;BME280;21990;42.540;23.496;2022-12-16T08:18:05;93473.44;;;6.86;100.00
35888;BME280;21990;42.540;23.496;2022-12-16T08:20:49;93470.63;;;6.97;100.00
35888;BME280;21990;42.540;23.496;2022-12-16T08:23:33;93472.16;;;7.04;100.00
35888;BME280;21990;42.540;23.496;2022-12-16T08:26:17;93472.13;;;7.15;100.00
35888;BME280;21990;42.540;23.496;2022-12-16T08:29:02;93470.03;;;7.32;100.00
35888;BME280;21990;42.540;23.496;2022-12-16T08:31:46;93477.41;;;7.41;100.00
35888;BME280;21990;42.540;23.496;2022-12-16T08:34:30;93467.69;;;7.47;100.00
35888;BME280;21990;42.540;23.496;2022-12-16T08:37:14;93467.41;;;7.56;100.00
35888;BME280;21990;42.540;23.496;2022-12-16T08:39:58;93465.38;;;7.51;100.00
35888;BME280;21990;42.540;23.496;2022-12-16T08:42:42;93475.84;;;7.45;100.00
35888;BME280;21990;42.540;23.496;2022-12-16T08:45:26;93473.59;;;7.33;100.00
35888;BME280;21990;42.540;23.496;2022-12-16T08:48:11;93467.75;;;7.31;100.00
35888;BME280;21990;42.540;23.496;2022-12-16T08:50:55;93455.56;;;7.23;100.00
35888;BME280;21990;42.540;23.496;2022-12-16T08:53:39;93445.66;;;7.10;100.00
35888;BME280;21990;42.540;23.496;2022-12-16T08:56:23;93450.22;;;7.13;100.00
35888;BME280;21990;42.540;23.496;2022-12-16T08:59:07;93452.78;;;7.11;100.00
35888;BME280;21990;42.540;23.496;2022-12-16T09:01:51;93445.88;;;7.12;100.00
35888;BME280;21990;42.540;23.496;2022-12-16T09:04:34;93448.72;;;7.07;100.00
35888;BME280;21990;42.540;23.496;2022-12-16T09:07:19;93437.78;;;7.03;100.00
35888;BME280;21990;42.540;23.496;2022-12-16T09:10:03;93429.59;;;7.11;100.00
35888;BME280;21990;42.540;23.496;2022-12-16T09:12:48;93421.69;;;7.09;100.00
35888;BME280;21990;42.540;23.496;2022-12-16T09:15:32;93423.25;;;7.10;100.00
35888;BME280;21990;42.540;23.496;2022-12-16T09:18:15;93434.44;;;7.10;100.00
35888;BME280;21990;42.540;23.496;2022-12-16T09:20:59;93432.91;;;7.09;100.00
35888;BME280;21990;42.540;23.496;2022-12-16T09:23:43;93424.50;;;7.09;100.00
35888;BME280;21990;42.540;23.496;2022-12-16T09:26:30;93428.84;;;7.10;100.00
35888;BME280;21990;42.540;23.496;2022-12-16T09:29:14;93418.91;;;7.15;100.00
35888;BME280;21990;42.540;23.496;2022-12-16T09:31:58;93426.28;;;7.12;100.00
35888;BME280;21990;42.540;23.496;2022-12-16T09:34:42;93407.41;;;7.19;100.00
35888;BME280;21990;42.540;23.496;2022-12-16T09:37:26;93405.13;;;7.23;100.00
35888;BME280;21990;42.540;23.496;2022-12-16T09:40:15;93388.56;;;7.19;100.00
35888;BME280;21990;42.540;23.496;2022-12-16T09:49:46;93402.00;;;7.32;100.00
35888;BME280;21990;42.540;23.496;2022-12-16T09:52:34;93410.44;;;7.26;100.00
35888;BME280;21990;42.540;23.496;2022-12-16T09:55:31;93388.75;;;7.38;100.00
35888;BME280;21990;42.540;23.496;2022-12-16T09:58:16;93388.47;;;7.41;100.00
35888;BME280;21990;42.540;23.496;2022-12-16T10:01:02;93384.38;;;7.42;100.00
35888;BME280;21990;42.540;23.496;2022-12-16T10:03:46;93382.31;;;7.48;100.00
35888;BME280;21990;42.540;23.496;2022-12-16T10:06:47;93382.56;;;7.50;100.00
35888;BME280;21990;42.540;23.496;2022-12-16T10:15:30;93379.56;;;7.43;100.00
35888;BME280;21990;42.540;23.496;2022-12-16T10:18:49;93386.38;;;7.53;100.00
35888;BME280;21990;42.540;23.496;2022-12-16T10:24:57;93386.84;;;7.57;100.00
35888;BME280;21990;42.540;23.496;2022-12-16T10:27:46;93400.66;;;7.49;100.00
35888;BME280;21990;42.540;23.496;2022-12-16T10:30:32;93398.09;;;7.51;100.00
35888;BME280;21990;42.540;23.496;2022-12-16T10:33:19;93394.53;;;7.51;100.00
35888;BME280;21990;42.540;23.496;2022-12-16T10:36:05;93386.66;;;7.49;100.00
35888;BME280;21990;42.540;23.496;2022-12-16T10:39:01;93383.06;;;7.54;100.00
35888;BME280;21990;42.540;23.496;2022-12-16T10:41:49;93372.59;;;7.55;100.00
35888;BME280;21990;42.540;23.496;2022-12-16T10:44:57;93368.00;;;7.57;100.00
35888;BME280;21990;42.540;23.496;2022-12-16T10:47:42;93371.03;;;7.59;100.00
35888;BME280;21990;42.540;23.496;2022-12-16T10:50:26;93374.09;;;7.61;100.00
35888;BME280;21990;42.540;23.496;2022-12-16T10:53:17;93374.84;;;7.62;100.00
35888;BME280;21990;42.540;23.496;2022-12-16T10:59:06;93363.09;;;7.69;100.00
35888;BME280;21990;42.540;23.496;2022-12-16T11:01:58;93358.72;;;7.74;100.00
35888;BME280;21990;42.540;23.496;2022-12-16T11:04:43;93363.00;;;7.80;100.00
35888;BME280;21990;42.540;23.496;2022-12-16T11:07:35;93358.09;;;7.92;100.00
35888;BME280;21990;42.540;23.496;2022-12-16T11:10:31;93363.41;;;7.95;100.00
35888;BME280;21990;42.540;23.496;2022-12-16T11:16:21;93365.47;;;7.95;100.00
35888;BME280;21990;42.540;23.496;2022-12-16T11:19:26;93365.91;;;8.04;100.00
35888;BME280;21990;42.540;23.496;2022-12-16T11:22:22;93368.47;;;8.02;100.00
35888;BME280;21990;42.540;23.496;2022-12-16T11:25:17;93366.63;;;8.10;100.00
35888;BME280;21990;42.540;23.496;2022-12-16T11:30:51;93348.44;;;8.17;100.00
35888;BME280;21990;42.540;23.496;2022-12-16T11:33:38;93351.50;;;8.19;100.00
35888;BME280;21990;42.540;23.496;2022-12-16T11:36:23;93358.09;;;8.22;100.00
35888;BME280;21990;42.540;23.496;2022-12-16T11:39:14;93355.78;;;8.31;100.00
35888;BME280;21990;42.540;23.496;2022-12-16T11:42:02;93355.88;;;8.44;100.00
35888;BME280;21990;42.540;23.496;2022-12-16T11:44:50;93353.84;;;8.45;100.00
35888;BME280;21990;42.540;23.496;2022-12-16T11:47:40;93357.13;;;8.49;100.00
35888;BME280;21990;42.540;23.496;2022-12-16T11:50:28;93355.06;;;8.55;100.00
35888;BME280;21990;42.540;23.496;2022-12-16T11:56:28;93346.50;;;8.66;100.00
35888;BME280;21990;42.540;23.496;2022-12-16T12:02:02;93347.44;;;8.74;100.00
35888;BME280;21990;42.540;23.496;2022-12-16T12:04:49;93343.28;;;8.81;100.00
35888;BME280;21990;42.540;23.496;2022-12-16T12:07:47;93340.56;;;8.75;100.00
35888;BME280;21990;42.540;23.496;2022-12-16T12:26:43;93325.88;;;9.06;100.00
35888;BME280;21990;42.540;23.496;2022-12-16T12:39:28;93314.97;;;9.22;100.00
35888;BME280;21990;42.540;23.496;2022-12-16T12:42:44;93315.91;;;9.30;100.00
35888;BME280;21990;42.540;23.496;2022-12-16T12:57:05;93286.34;;;9.61;100.00
35888;BME280;21990;42.540;23.496;2022-12-16T12:59:57;93285.47;;;9.66;100.00
35888;BME280;21990;42.540;23.496;2022-12-16T13:02:48;93298.84;;;9.78;100.00
35888;BME280;21990;42.540;23.496;2022-12-16T13:05:33;93294.75;;;9.79;100.00
35888;BME280;21990;42.540;23.496;2022-12-16T13:11:21;93315.75;;;9.60;100.00
35888;BME280;21990;42.540;23.496;2022-12-16T13:17:16;93321.28;;;9.65;100.00
35888;BME280;21990;42.540;23.496;2022-12-16T13:20:02;93316.66;;;9.68;100.00
35888;BME280;21990;42.540;23.496;2022-12-16T13:22:47;93322.81;;;9.66;100.00
35888;BME280;21990;42.540;23.496;2022-12-16T13:28:27;93315.44;;;9.63;100.00
35888;BME280;21990;42.540;23.496;2022-12-16T13:31:14;93312.09;;;9.65;100.00
35888;BME280;21990;42.540;23.496;2022-12-16T13:34:24;93322.19;;;9.54;100.00
35888;BME280;21990;42.540;23.496;2022-12-16T13:37:19;93323.88;;;9.63;100.00
35888;BME280;21990;42.540;23.496;2022-12-16T13:40:16;93324.94;;;9.60;100.00
35888;BME280;21990;42.540;23.496;2022-12-16T13:43:01;93332.00;;;9.67;100.00
35888;BME280;21990;42.540;23.496;2022-12-16T13:48:47;93321.59;;;9.62;100.00
35888;BME280;21990;42.540;23.496;2022-12-16T13:57:10;93330.03;;;9.43;100.00
35888;BME280;21990;42.540;23.496;2022-12-16T13:59:58;93324.66;;;9.45;100.00
35888;BME280;21990;42.540;23.496;2022-12-16T14:02:44;93330.38;;;9.34;100.00
35888;BME280;21990;42.540;23.496;2022-12-16T14:05:35;93334.59;;;9.46;100.00
35888;BME280;21990;42.540;23.496;2022-12-16T14:08:22;93332.31;;;9.44;100.00
35888;BME280;21990;42.540;23.496;2022-12-16T14:11:17;93323.63;;;9.42;100.00
35888;BME280;21990;42.540;23.496;2022-12-16T14:14:25;93345.63;;;9.44;100.00
35888;BME280;21990;42.540;23.496;2022-12-16T14:17:28;93328.19;;;9.45;100.00
35888;BME280;21990;42.540;23.496;2022-12-16T14:20:36;93334.81;;;9.48;100.00
35888;BME280;21990;42.540;23.496;2022-12-16T14:23:40;93347.31;;;9.52;100.00
35888;BME280;21990;42.540;23.496;2022-12-16T14:26:27;93343.72;;;9.52;100.00
35888;BME280;21990;42.540;23.496;2022-12-16T14:29:27;93357.78;;;9.52;100.00
35888;BME280;21990;42.540;23.496;2022-12-16T14:35:12;93367.19;;;9.73;100.00
35888;BME280;21990;42.540;23.496;2022-12-16T14:37:57;93358.25;;;9.75;100.00
35888;BME280;21990;42.540;23.496;2022-12-16T14:40:41;93356.81;;;9.68;100.00
35888;BME280;21990;42.540;23.496;2022-12-16T14:43:25;93360.00;;;9.59;100.00
35888;BME280;21990;42.540;23.496;2022-12-16T14:46:26;93368.44;;;9.59;100.00
35888;BME280;21990;42.540;23.496;2022-12-16T14:49:21;93377.47;;;9.52;100.00
35888;BME280;21990;42.540;23.496;2022-12-16T14:52:17;93379.72;;;9.53;100.00
35888;BME280;21990;42.540;23.496;2022-12-16T14:55:26;93396.41;;;9.51;100.00
35888;BME280;21990;42.540;23.496;2022-12-16T14:58:19;93397.94;;;9.52;100.00
35888;BME280;21990;42.540;23.496;2022-12-16T15:03:55;93396.28;;;9.38;100.00
35888;BME280;21990;42.540;23.496;2022-12-16T15:06:42;93402.00;;;9.33;100.00
35888;BME280;21990;42.540;23.496;2022-12-16T15:09:39;93407.81;;;9.16;100.00
35888;BME280;21990;42.540;23.496;2022-12-16T15:12:28;93385.81;;;9.15;100.00
35888;BME280;21990;42.540;23.496;2022-12-16T15:15:22;93378.63;;;8.95;100.00
35888;BME280;21990;42.540;23.496;2022-12-16T15:18:21;93381.00;;;8.91;100.00
35888;BME280;21990;42.540;23.496;2022-12-16T15:21:07;93374.63;;;8.90;100.00
35888;BME280;21990;42.540;23.496;2022-12-16T15:23:51;93375.09;;;8.94;100.00
35888;BME280;21990;42.540;23.496;2022-12-16T15:26:36;93367.84;;;8.99;100.00
35888;BME280;21990;42.540;23.496;2022-12-16T15:29:33;93376.03;;;9.02;100.00
35888;BME280;21990;42.540;23.496;2022-12-16T15:32:29;93384.44;;;9.02;100.00
35888;BME280;21990;42.540;23.496;2022-12-16T15:35:49;93392.59;;;9.06;100.00
35888;BME280;21990;42.540;23.496;2022-12-16T15:38:33;93395.97;;;8.99;100.00
35888;BME280;21990;42.540;23.496;2022-12-16T15:41:31;93401.59;;;8.99;100.00
35888;BME280;21990;42.540;23.496;2022-12-16T15:44:17;93398.31;;;8.95;100.00
35888;BME280;21990;42.540;23.496;2022-12-16T15:47:03;93405.06;;;8.86;100.00
35888;BME280;21990;42.540;23.496;2022-12-16T15:49:47;93412.34;;;8.71;100.00
35888;BME280;21990;42.540;23.496;2022-12-16T15:55:27;93399.69;;;8.58;100.00
35888;BME280;21990;42.540;23.496;2022-12-16T15:58:34;93399.16;;;8.60;100.00
35888;BME280;21990;42.540;23.496;2022-12-16T16:01:23;93397.97;;;8.50;100.00
35888;BME280;21990;42.540;23.496;2022-12-16T16:04:28;93399.44;;;8.56;100.00
35888;BME280;21990;42.540;23.496;2022-12-16T16:07:21;93408.41;;;8.55;100.00
35888;BME280;21990;42.540;23.496;2022-12-16T16:10:22;93418.09;;;8.54;100.00
35888;BME280;21990;42.540;23.496;2022-12-16T16:13:07;93421.88;;;8.62;100.00
35888;BME280;21990;42.540;23.496;2022-12-16T16:15:51;93428.94;;;8.69;100.00